Terminal Aerodrome Forecast
Issued by NWS Wichita, KS

Home | Current Version | Previous Version | Text Only | Print | Product List | Glossary Off
Versions: 1 2 3 4 5 6 7 8 9 10 11 12 13 14 15 16 17

000
FTUS43 KICT 172300
TAFICT
TAF
KICT 172322Z 1800/1824 06005KT P6SM BKN100
     FM180400 15004KT 5SM BR SCT120
     FM181400 17010KT P6SM SCT025
     FM181700 17015G22KT P6SM SCT035=

USA.gov is the U.S. government's official web portal to all federal, state and local government web resources and services.